Time,TemperatureF,DewpointF,PressureIn,WindDirection,WindDirectionDegrees,WindSpeedMPH,WindSpeedGustMPH,Humidity,HourlyPrecipIn,Conditions,Clouds,dailyrainin,SoftwareType,DateUTC
2013-01-22 08:52:00,21.3,5.1,29.90,North,4,3.0,4.0,49,0.00,,,0.00,Wunderground v.1.15,2013-01-22 13:52:00,
2013-01-22 08:53:00,21.4,5.2,29.89,NE,44,4.0,7.0,49,0.00,,,0.00,Wunderground v.1.15,2013-01-22 13:53:00,
2013-01-22 08:58:00,21.4,4.7,29.90,NNE,16,12.0,19.0,48,0.00,,,0.00,Wunderground v.1.15,2013-01-22 13:58:00,
2013-01-22 09:02:00,21.4,4.7,29.90,NW,308,6.0,19.0,48,0.00,,,0.00,Wunderground v.1.15,2013-01-22 14:02:00,
2013-01-22 09:08:00,21.4,4.3,29.91,NE,45,8.0,19.0,47,0.00,,,0.00,Wunderground v.1.15,2013-01-22 14:08:00,
2013-01-22 09:22:00,21.7,4.5,29.90,NW,314,6.0,11.0,47,0.00,,,0.00,Wunderground v.1.15,2013-01-22 14:22:00,
2013-01-22 09:28:00,21.6,4.4,29.90,NNW,328,7.0,21.0,47,0.00,,,0.00,Wunderground v.1.15,2013-01-22 14:28:00,
2013-01-22 09:34:00,21.5,3.9,29.91,NNW,343,9.0,21.0,46,0.00,,,0.00,Wunderground v.1.15,2013-01-22 14:34:00,
2013-01-22 09:40:00,21.8,4.2,29.90,NNE,28,7.0,21.0,46,0.00,,,0.00,Wunderground v.1.15,2013-01-22 14:40:00,
2013-01-22 09:46:00,22.0,4.3,29.91,NNE,24,6.0,21.0,46,0.00,,,0.00,Wunderground v.1.15,2013-01-22 14:46:00,
2013-01-22 09:52:00,22.4,5.2,29.91,NNE,25,5.0,5.0,47,0.00,,,0.00,Wunderground v.1.15,2013-01-22 14:52:00,
2013-01-22 09:58:00,22.8,5.1,29.91,NE,35,5.0,20.0,46,0.00,,,0.00,Wunderground v.1.15,2013-01-22 14:58:00,
2013-01-22 10:04:00,22.6,4.9,29.91,WNW,301,6.0,12.0,46,0.00,,,0.00,Wunderground v.1.15,2013-01-22 15:04:00,
2013-01-22 10:10:00,22.5,4.3,29.91,North,349,7.0,7.0,45,0.00,,,0.00,Wunderground v.1.15,2013-01-22 15:10:00,
2013-01-22 10:16:00,22.8,4.6,29.91,North,359,6.0,20.0,45,0.00,,,0.00,Wunderground v.1.15,2013-01-22 15:16:00,
2013-01-22 10:22:00,23.4,5.6,29.91,NNE,25,5.0,9.0,46,0.00,,,0.00,Wunderground v.1.15,2013-01-22 15:22:00,
2013-01-22 10:28:00,23.4,3.6,29.90,NE,39,5.0,16.0,42,0.00,,,0.00,Wunderground v.1.15,2013-01-22 15:28:00,
2013-01-22 10:34:00,23.1,2.3,29.91,NNE,27,7.0,16.0,40,0.00,,,0.00,Wunderground v.1.15,2013-01-22 15:34:00,
2013-01-22 10:40:00,23.0,1.7,29.90,NNW,330,8.0,8.0,39,0.00,,,0.00,Wunderground v.1.15,2013-01-22 15:40:00,
2013-01-22 10:46:00,23.0,1.1,29.91,NNE,33,8.0,16.0,38,0.00,,,0.00,Wunderground v.1.15,2013-01-22 15:46:00,
2013-01-22 10:52:00,23.0,1.7,29.90,NNW,347,8.0,22.0,39,0.00,,,0.00,Wunderground v.1.15,2013-01-22 15:52:00,
2013-01-22 10:58:00,23.6,1.7,29.90,NE,56,7.0,22.0,38,0.00,,,0.00,Wunderground v.1.15,2013-01-22 15:58:00,
2013-01-22 11:04:00,23.3,-0.4,29.90,NNE,25,8.0,22.0,35,0.00,,,0.00,Wunderground v.1.15,2013-01-22 16:04:00,
2013-01-22 11:10:00,23.0,0.0,29.90,North,4,10.0,10.0,36,0.00,,,0.00,Wunderground v.1.15,2013-01-22 16:10:00,
2013-01-22 11:18:00,23.9,0.8,29.89,NNE,25,7.0,22.0,36,0.00,,,0.00,Wunderground v.1.15,2013-01-22 16:18:00,
2013-01-22 11:24:00,23.4,-0.3,29.89,North,354,8.0,23.0,35,0.00,,,0.00,Wunderground v.1.15,2013-01-22 16:24:00,
2013-01-22 11:30:00,23.6,0.5,29.89,NW,312,9.0,9.0,36,0.00,,,0.00,Wunderground v.1.15,2013-01-22 16:30:00,
2013-01-22 11:38:00,23.4,0.3,29.89,NE,43,9.0,23.0,36,0.00,,,0.00,Wunderground v.1.15,2013-01-22 16:38:00,
2013-01-22 11:44:00,23.4,-0.3,29.89,NNE,27,7.0,23.0,35,0.00,,,0.00,Wunderground v.1.15,2013-01-22 16:44:00,
2013-01-22 11:50:00,23.7,1.2,29.90,NNE,29,7.0,7.0,37,0.00,,,0.00,Wunderground v.1.15,2013-01-22 16:50:00,
2013-01-22 11:56:00,23.4,0.3,29.89,NNE,24,8.0,22.0,36,0.00,,,0.00,Wunderground v.1.15,2013-01-22 16:56:00,
2013-01-22 12:02:00,23.9,1.4,29.89,NE,37,8.0,22.0,37,0.00,,,0.00,Wunderground v.1.15,2013-01-22 17:02:00,
2013-01-22 12:08:00,24.0,1.5,29.89,NNE,12,7.0,22.0,37,0.00,,,0.00,Wunderground v.1.15,2013-01-22 17:08:00,
2013-01-22 12:14:00,23.9,1.4,29.88,NNE,14,7.0,22.0,37,0.00,,,0.00,Wunderground v.1.15,2013-01-22 17:14:00,
2013-01-22 12:20:00,24.3,1.7,29.88,NE,52,6.0,6.0,37,0.00,,,0.00,Wunderground v.1.15,2013-01-22 17:20:00,
2013-01-22 12:26:00,24.8,1.6,29.88,NW,316,5.0,21.0,36,0.00,,,0.00,Wunderground v.1.15,2013-01-22 17:26:00,
2013-01-22 12:32:00,24.4,0.6,29.88,North,359,7.0,20.0,35,0.00,,,0.00,Wunderground v.1.15,2013-01-22 17:32:00,
2013-01-22 12:38:00,23.9,0.2,29.88,NNW,328,8.0,20.0,35,0.00,,,0.00,Wunderground v.1.15,2013-01-22 17:38:00,
2013-01-22 12:44:00,23.8,-0.5,29.88,NNE,26,10.0,20.0,34,0.00,,,0.00,Wunderground v.1.15,2013-01-22 17:44:00,
2013-01-22 12:50:00,23.8,0.1,29.88,NE,52,8.0,20.0,35,0.00,,,0.00,Wunderground v.1.15,2013-01-22 17:50:00,
2013-01-22 12:56:00,23.8,-0.5,29.88,NNE,12,6.0,26.0,34,0.00,,,0.00,Wunderground v.1.15,2013-01-22 17:56:00,
2013-01-22 13:02:00,23.7,-0.6,29.88,NE,43,7.0,26.0,34,0.00,,,0.00,Wunderground v.1.15,2013-01-22 18:02:00,
2013-01-22 13:08:00,23.6,-0.1,29.88,NNW,329,8.0,26.0,35,0.00,,,0.00,Wunderground v.1.15,2013-01-22 18:08:00,
2013-01-22 13:14:00,23.7,-0.6,29.87,North,8,7.0,26.0,34,0.00,,,0.00,Wunderground v.1.15,2013-01-22 18:14:00,
2013-01-22 13:20:00,23.7,-0.6,29.88,WNW,283,8.0,26.0,34,0.00,,,0.00,Wunderground v.1.15,2013-01-22 18:20:00,
2013-01-22 13:26:00,23.6,-0.7,29.89,West,264,8.0,26.0,34,0.00,,,0.00,Wunderground v.1.15,2013-01-22 18:26:00,
2013-01-22 13:32:00,23.4,-0.9,29.89,NW,312,8.0,22.0,34,0.00,,,0.00,Wunderground v.1.15,2013-01-22 18:32:00,
2013-01-22 13:38:00,23.1,-1.8,29.89,ENE,60,7.0,22.0,33,0.00,,,0.00,Wunderground v.1.15,2013-01-22 18:38:00,
2013-01-22 13:44:00,22.9,-0.7,29.89,North,349,8.0,24.0,35,0.00,,,0.00,Wunderground v.1.15,2013-01-22 18:44:00,
2013-01-22 13:50:00,23.2,-0.5,29.89,NW,324,9.0,9.0,35,0.00,,,0.00,Wunderground v.1.15,2013-01-22 18:50:00,
2013-01-22 13:58:00,23.0,-0.6,29.89,East,81,7.0,29.0,35,0.00,,,0.00,Wunderground v.1.15,2013-01-22 18:58:00,
2013-01-22 14:04:00,22.9,-0.7,29.90,NE,48,7.0,29.0,35,0.00,,,0.00,Wunderground v.1.15,2013-01-22 19:04:00,
2013-01-22 14:10:00,23.3,-0.4,29.90,NE,45,6.0,29.0,35,0.00,,,0.00,Wunderground v.1.15,2013-01-22 19:10:00,
2013-01-22 14:16:00,23.0,-1.2,29.90,North,359,7.0,29.0,34,0.00,,,0.00,Wunderground v.1.15,2013-01-22 19:16:00,
2013-01-22 14:22:00,22.8,-0.2,29.90,NNE,23,8.0,29.0,36,0.00,,,0.00,Wunderground v.1.15,2013-01-22 19:22:00,
2013-01-22 14:28:00,22.4,-0.6,29.91,NNE,13,8.0,29.0,36,0.00,,,0.00,Wunderground v.1.15,2013-01-22 19:28:00,
2013-01-22 14:34:00,22.1,-0.8,29.91,NNW,332,7.0,19.0,36,0.00,,,0.00,Wunderground v.1.15,2013-01-22 19:34:00,
2013-01-22 14:40:00,22.4,-1.2,29.91,NNW,335,7.0,7.0,35,0.00,,,0.00,Wunderground v.1.15,2013-01-22 19:40:00,
2013-01-22 14:46:00,22.7,-1.5,29.91,NNE,18,7.0,19.0,34,0.00,,,0.00,Wunderground v.1.15,2013-01-22 19:46:00,
2013-01-22 14:52:00,22.8,-1.4,29.91,ESE,116,7.0,18.0,34,0.00,,,0.00,Wunderground v.1.15,2013-01-22 19:52:00,
2013-01-22 14:58:00,23.2,-0.5,29.91,NW,316,5.0,18.0,35,0.00,,,0.00,Wunderground v.1.15,2013-01-22 19:58:00,
2013-01-22 15:04:00,22.9,-2.0,29.91,NE,37,6.0,18.0,33,0.00,,,0.00,Wunderground v.1.15,2013-01-22 20:04:00,
2013-01-22 15:10:00,22.6,-1.6,29.91,West,272,6.0,6.0,34,0.00,,,0.00,Wunderground v.1.15,2013-01-22 20:10:00,
2013-01-22 15:16:00,22.6,-1.0,29.92,NE,51,6.0,18.0,35,0.00,,,0.00,Wunderground v.1.15,2013-01-22 20:16:00,
2013-01-22 15:22:00,22.8,-0.8,29.91,NNW,333,5.0,7.0,35,0.00,,,0.00,Wunderground v.1.15,2013-01-22 20:22:00,
2013-01-22 15:28:00,22.8,-0.8,29.92,NNE,25,6.0,18.0,35,0.00,,,0.00,Wunderground v.1.15,2013-01-22 20:28:00,
2013-01-22 15:34:00,22.7,-0.9,29.92,NNW,328,7.0,18.0,35,0.00,,,0.00,Wunderground v.1.15,2013-01-22 20:34:00,
2013-01-22 15:40:00,22.7,-0.3,29.92,NW,313,6.0,6.0,36,0.00,,,0.00,Wunderground v.1.15,2013-01-22 20:40:00,
2013-01-22 15:48:00,22.6,-1.6,29.92,NE,35,6.0,18.0,34,0.00,,,0.00,Wunderground v.1.15,2013-01-22 20:48:00,
2013-01-22 15:54:00,22.6,-1.6,29.92,North,354,5.0,16.0,34,0.00,,,0.00,Wunderground v.1.15,2013-01-22 20:54:00,
2013-01-22 16:00:00,22.3,-1.9,29.92,ENE,77,5.0,16.0,34,0.00,,,0.00,Wunderground v.1.15,2013-01-22 21:00:00,
2013-01-22 16:06:00,22.2,-0.7,29.93,NNW,335,4.0,16.0,36,0.00,,,0.00,Wunderground v.1.15,2013-01-22 21:06:00,
2013-01-22 16:12:00,21.9,-1.6,29.93,NNE,22,4.0,16.0,35,0.00,,,0.00,Wunderground v.1.15,2013-01-22 21:12:00,
2013-01-22 16:18:00,21.7,-1.8,29.93,NNW,342,6.0,16.0,35,0.00,,,0.00,Wunderground v.1.15,2013-01-22 21:18:00,
2013-01-22 16:24:00,21.7,-1.2,29.93,NNE,28,5.0,18.0,36,0.00,,,0.00,Wunderground v.1.15,2013-01-22 21:24:00,
2013-01-22 16:30:00,21.6,-1.3,29.94,NNW,342,5.0,18.0,36,0.00,,,0.00,Wunderground v.1.15,2013-01-22 21:30:00,
2013-01-22 16:36:00,21.7,-0.6,29.94,NNE,30,5.0,18.0,37,0.00,,,0.00,Wunderground v.1.15,2013-01-22 21:36:00,
2013-01-22 16:42:00,21.5,-1.4,29.94,WNW,303,4.0,6.0,36,0.00,,,0.00,Wunderground v.1.15,2013-01-22 21:42:00,
2013-01-22 16:46:00,21.3,-1.6,29.94,NW,312,4.0,18.0,36,0.00,,,0.00,Wunderground v.1.15,2013-01-22 21:46:00,
2013-01-22 16:52:00,21.1,-1.7,29.95,NNE,19,6.0,18.0,36,0.00,,,0.00,Wunderground v.1.15,2013-01-22 21:52:00,
2013-01-22 16:58:00,21.0,-1.2,29.95,NW,314,5.0,18.0,37,0.00,,,0.00,Wunderground v.1.15,2013-01-22 21:58:00,
2013-01-22 17:04:00,21.0,-0.7,29.96,NNW,327,4.0,14.0,38,0.00,,,0.00,Wunderground v.1.15,2013-01-22 22:04:00,
2013-01-22 17:10:00,20.8,-0.9,29.96,NW,318,4.0,4.0,38,0.00,,,0.00,Wunderground v.1.15,2013-01-22 22:10:00,
2013-01-22 17:16:00,20.6,-1.0,29.97,NNW,345,4.0,14.0,38,0.00,,,0.00,Wunderground v.1.15,2013-01-22 22:16:00,
2013-01-22 17:22:00,20.5,-0.6,29.97,NNE,23,3.0,17.0,39,0.00,,,0.00,Wunderground v.1.15,2013-01-22 22:22:00,
2013-01-22 17:28:00,20.3,-1.3,29.97,North,354,3.0,17.0,38,0.00,,,0.00,Wunderground v.1.15,2013-01-22 22:28:00,
2013-01-22 17:34:00,20.2,-0.8,29.98,NW,314,3.0,17.0,39,0.00,,,0.00,Wunderground v.1.15,2013-01-22 22:34:00,
2013-01-22 17:40:00,20.2,0.2,29.98,NNW,332,3.0,3.0,41,0.00,,,0.00,Wunderground v.1.15,2013-01-22 22:40:00,
2013-01-22 17:46:00,20.1,-0.9,29.98,NNE,12,3.0,17.0,39,0.00,,,0.00,Wunderground v.1.15,2013-01-22 22:46:00,
2013-01-22 17:52:00,19.9,-0.6,29.99,NNE,20,3.0,11.0,40,0.00,,,0.00,Wunderground v.1.15,2013-01-22 22:52:00,
2013-01-22 17:58:00,19.7,-0.8,29.99,NW,319,2.0,11.0,40,0.00,,,0.00,Wunderground v.1.15,2013-01-22 22:58:00,
2013-01-22 18:04:00,19.6,-0.3,29.99,NNW,328,2.0,11.0,41,0.00,,,0.00,Wunderground v.1.15,2013-01-22 23:04:00,
2013-01-22 18:10:00,19.5,-0.4,30.00,NNW,336,2.0,2.0,41,0.00,,,0.00,Wunderground v.1.15,2013-01-22 23:10:00,
2013-01-22 18:16:00,19.5,-0.4,30.00,North,354,3.0,11.0,41,0.00,,,0.00,Wunderground v.1.15,2013-01-22 23:16:00,
2013-01-22 18:22:00,19.4,-1.0,30.00,NNW,329,3.0,11.0,40,0.00,,,0.00,Wunderground v.1.15,2013-01-22 23:22:00,
2013-01-22 18:28:00,19.3,-1.1,30.01,North,359,3.0,11.0,40,0.00,,,0.00,Wunderground v.1.15,2013-01-22 23:28:00,
2013-01-22 18:34:00,19.2,-1.2,30.01,NNW,333,2.0,11.0,40,0.00,,,0.00,Wunderground v.1.15,2013-01-22 23:34:00,
2013-01-22 18:40:00,19.2,-0.7,30.01,NW,307,3.0,3.0,41,0.00,,,0.00,Wunderground v.1.15,2013-01-22 23:40:00,
2013-01-22 18:46:00,19.1,-0.3,30.01,NNW,337,2.0,11.0,42,0.00,,,0.00,Wunderground v.1.15,2013-01-22 23:46:00,
2013-01-22 18:52:00,19.2,-0.2,30.01,North,350,2.0,11.0,42,0.00,,,0.00,Wunderground v.1.15,2013-01-22 23:52:00,
2013-01-22 18:58:00,19.2,-0.7,30.02,NNW,328,3.0,11.0,41,0.00,,,0.00,Wunderground v.1.15,2013-01-22 23:58:00,
2013-01-22 19:04:00,19.2,-0.2,30.02,NW,324,2.0,11.0,42,0.00,,,0.00,Wunderground v.1.15,2013-01-23 00:04:00,
2013-01-22 19:10:00,19.0,-0.9,30.02,NNW,342,2.0,2.0,41,0.00,,,0.00,Wunderground v.1.15,2013-01-23 00:10:00,
2013-01-22 19:16:00,18.9,-1.0,30.02,NW,316,3.0,11.0,41,0.00,,,0.00,Wunderground v.1.15,2013-01-23 00:16:00,
2013-01-22 19:22:00,18.8,-0.5,30.02,NNE,24,2.0,6.0,42,0.00,,,0.00,Wunderground v.1.15,2013-01-23 00:22:00,
2013-01-22 19:28:00,18.8,-1.1,30.03,NNW,330,2.0,9.0,41,0.00,,,0.00,Wunderground v.1.15,2013-01-23 00:28:00,
2013-01-22 19:34:00,18.7,-1.1,30.03,NNW,337,2.0,9.0,41,0.00,,,0.00,Wunderground v.1.15,2013-01-23 00:34:00,
2013-01-22 19:40:00,18.7,-0.6,30.03,NNE,25,2.0,2.0,42,0.00,,,0.00,Wunderground v.1.15,2013-01-23 00:40:00,
2013-01-22 19:48:00,18.5,-0.8,30.03,North,4,1.0,9.0,42,0.00,,,0.00,Wunderground v.1.15,2013-01-23 00:48:00,
2013-01-22 19:54:00,18.4,-0.9,30.04,NNW,328,1.0,10.0,42,0.00,,,0.00,Wunderground v.1.15,2013-01-23 00:54:00,
2013-01-22 20:00:00,18.3,-0.5,30.04,NNW,328,1.0,1.0,43,0.00,,,0.00,Wunderground v.1.15,2013-01-23 01:00:00,
2013-01-22 20:06:00,18.2,-0.6,30.04,NW,326,1.0,10.0,43,0.00,,,0.00,Wunderground v.1.15,2013-01-23 01:06:00,
2013-01-22 20:12:00,18.0,-0.3,30.04,NNW,342,1.0,2.0,44,0.00,,,0.00,Wunderground v.1.15,2013-01-23 01:12:00,
2013-01-22 20:18:00,17.8,-1.0,30.04,NNW,340,1.0,10.0,43,0.00,,,0.00,Wunderground v.1.15,2013-01-23 01:18:00,
2013-01-22 20:24:00,17.7,-0.6,30.04,NNW,329,2.0,10.0,44,0.00,,,0.00,Wunderground v.1.15,2013-01-23 01:24:00,
2013-01-22 20:30:00,17.6,-1.1,30.04,NNW,335,2.0,2.0,43,0.00,,,0.00,Wunderground v.1.15,2013-01-23 01:30:00,
2013-01-22 20:38:00,17.4,-0.8,30.04,NNE,16,2.0,6.0,44,0.00,,,0.00,Wunderground v.1.15,2013-01-23 01:38:00,
2013-01-22 20:44:00,17.3,-1.4,30.05,NNW,347,3.0,6.0,43,0.00,,,0.00,Wunderground v.1.15,2013-01-23 01:44:00,
2013-01-22 20:50:00,17.2,-1.0,30.05,NW,309,2.0,6.0,44,0.00,,,0.00,Wunderground v.1.15,2013-01-23 01:50:00,
2013-01-22 20:56:00,17.1,-1.6,30.05,NW,324,3.0,10.0,43,0.00,,,0.00,Wunderground v.1.15,2013-01-23 01:56:00,
2013-01-22 21:02:00,17.0,-1.7,30.05,NW,308,3.0,10.0,43,0.00,,,0.00,Wunderground v.1.15,2013-01-23 02:02:00,
2013-01-22 21:08:00,16.9,-1.8,30.05,NW,325,3.0,10.0,43,0.00,,,0.00,Wunderground v.1.15,2013-01-23 02:08:00,
2013-01-22 21:14:00,17.0,-1.2,30.06,NW,324,3.0,10.0,44,0.00,,,0.00,Wunderground v.1.15,2013-01-23 02:14:00,
2013-01-22 21:20:00,16.8,-1.9,30.06,NW,324,3.0,10.0,43,0.00,,,0.00,Wunderground v.1.15,2013-01-23 02:20:00,
2013-01-22 21:26:00,16.7,-1.0,30.06,North,349,4.0,12.0,45,0.00,,,0.00,Wunderground v.1.15,2013-01-23 02:26:00,
2013-01-22 21:32:00,16.6,-1.6,30.06,NNE,21,3.0,12.0,44,0.00,,,0.00,Wunderground v.1.15,2013-01-23 02:32:00,
2013-01-22 21:38:00,16.5,-1.2,30.06,NNW,328,3.0,12.0,45,0.00,,,0.00,Wunderground v.1.15,2013-01-23 02:38:00,
2013-01-22 21:44:00,16.5,-1.2,30.06,NNW,341,4.0,12.0,45,0.00,,,0.00,Wunderground v.1.15,2013-01-23 02:44:00,
2013-01-22 21:50:00,16.3,-1.4,30.06,NNW,343,4.0,4.0,45,0.00,,,0.00,Wunderground v.1.15,2013-01-23 02:50:00,
2013-01-22 21:56:00,16.2,-1.5,30.07,NNE,18,3.0,15.0,45,0.00,,,0.00,Wunderground v.1.15,2013-01-23 02:56:00,
2013-01-22 22:02:00,16.1,-1.5,30.07,North,4,3.0,4.0,45,0.00,,,0.00,Wunderground v.1.15,2013-01-23 03:02:00,
2013-01-22 22:08:00,16.0,-1.6,30.07,NNW,343,3.0,15.0,45,0.00,,,0.00,Wunderground v.1.15,2013-01-23 03:08:00,
2013-01-22 22:14:00,15.9,-1.7,30.07,North,4,4.0,15.0,45,0.00,,,0.00,Wunderground v.1.15,2013-01-23 03:14:00,
2013-01-22 22:20:00,15.8,-1.8,30.07,NW,304,4.0,15.0,45,0.00,,,0.00,Wunderground v.1.15,2013-01-23 03:20:00,
2013-01-22 22:26:00,15.7,-1.4,30.08,NNW,333,3.0,15.0,46,0.00,,,0.00,Wunderground v.1.15,2013-01-23 03:26:00,
2013-01-22 22:32:00,15.7,-1.9,30.08,NNE,23,2.0,13.0,45,0.00,,,0.00,Wunderground v.1.15,2013-01-23 03:32:00,
2013-01-22 22:38:00,15.5,-2.1,30.08,NNE,24,3.0,13.0,45,0.00,,,0.00,Wunderground v.1.15,2013-01-23 03:38:00,
2013-01-22 22:44:00,15.4,-1.7,30.08,NW,317,3.0,13.0,46,0.00,,,0.00,Wunderground v.1.15,2013-01-23 03:44:00,
2013-01-22 22:50:00,15.3,-1.8,30.08,NW,319,3.0,13.0,46,0.00,,,0.00,Wunderground v.1.15,2013-01-23 03:50:00,
2013-01-22 22:56:00,15.2,-1.9,30.08,NNW,337,3.0,13.0,46,0.00,,,0.00,Wunderground v.1.15,2013-01-23 03:56:00,
2013-01-22 23:02:00,15.2,-1.5,30.08,NNW,346,2.0,10.0,47,0.00,,,0.00,Wunderground v.1.15,2013-01-23 04:02:00,
2013-01-22 23:08:00,15.2,-1.5,30.08,WNW,301,2.0,10.0,47,0.00,,,0.00,Wunderground v.1.15,2013-01-23 04:08:00,
2013-01-22 23:14:00,15.0,-2.1,30.08,North,354,3.0,10.0,46,0.00,,,0.00,Wunderground v.1.15,2013-01-23 04:14:00,
2013-01-22 23:20:00,14.9,-2.2,30.08,NNW,345,3.0,3.0,46,0.00,,,0.00,Wunderground v.1.15,2013-01-23 04:20:00,
2013-01-22 23:26:00,14.8,-2.3,30.08,NNW,341,3.0,9.0,46,0.00,,,0.00,Wunderground v.1.15,2013-01-23 04:26:00,
2013-01-22 23:32:00,14.7,-2.4,30.08,NNE,25,2.0,9.0,46,0.00,,,0.00,Wunderground v.1.15,2013-01-23 04:32:00,
2013-01-22 23:38:00,14.5,-1.7,30.08,North,359,2.0,9.0,48,0.00,,,0.00,Wunderground v.1.15,2013-01-23 04:38:00,
2013-01-22 23:44:00,14.4,-2.6,30.08,North,4,3.0,9.0,46,0.00,,,0.00,Wunderground v.1.15,2013-01-23 04:44:00,
2013-01-22 23:50:00,14.3,-2.7,30.08,NNW,334,3.0,3.0,46,0.00,,,0.00,Wunderground v.1.15,2013-01-23 04:50:00,
2013-01-22 23:56:00,14.1,-2.9,30.08,North,354,2.0,8.0,46,0.00,,,0.00,Wunderground v.1.15,2013-01-23 04:56:00,